createdAt,value
2022-12-05T00:01:47.266Z,3.66
2022-12-05T00:04:15.873Z,3.72
2022-12-05T00:06:49.454Z,3.61
2022-12-05T00:09:19.676Z,3.52
2022-12-05T00:11:54.487Z,3.60
2022-12-05T00:14:22.218Z,3.51
2022-12-05T00:16:51.032Z,3.48
2022-12-05T00:19:20.174Z,3.43
2022-12-05T00:21:58.683Z,3.44
2022-12-05T00:24:26.240Z,3.35
2022-12-05T00:26:53.800Z,3.36
2022-12-05T00:29:23.323Z,3.25
2022-12-05T00:31:50.596Z,3.27
2022-12-05T00:34:18.681Z,3.20
2022-12-05T01:56:59.503Z,2.66
2022-12-05T01:59:29.319Z,2.66
2022-12-05T02:02:06.143Z,2.65
2022-12-05T05:17:50.865Z,1.69
2022-12-05T08:20:16.402Z,3.79
2022-12-05T08:22:43.823Z,3.81
2022-12-05T08:25:10.865Z,3.85
2022-12-05T08:27:48.136Z,3.95
2022-12-05T08:30:16.097Z,4.05
2022-12-05T08:32:48.323Z,4.04
2022-12-05T08:35:31.551Z,4.01
2022-12-05T11:03:30.604Z,5.63
2022-12-05T11:06:01.768Z,5.58
2022-12-05T18:57:15.587Z,3.69
2022-12-05T18:59:42.887Z,3.72
2022-12-05T19:02:09.761Z,3.81
2022-12-05T19:04:36.460Z,3.78
2022-12-05T19:07:03.491Z,3.75
2022-12-05T19:09:45.375Z,3.78
2022-12-05T19:12:22.341Z,3.77
2022-12-05T19:14:57.795Z,3.82
2022-12-05T19:17:31.010Z,3.82
2022-12-05T19:19:58.712Z,3.80
2022-12-05T19:22:27.234Z,3.81
2022-12-05T19:24:54.308Z,3.80
2022-12-05T19:27:20.992Z,3.76
2022-12-05T19:29:49.550Z,3.81
2022-12-05T19:32:16.229Z,3.84
2022-12-05T19:34:42.917Z,3.83
2022-12-05T19:37:09.559Z,3.84
2022-12-05T19:39:37.606Z,3.90
2022-12-05T19:51:16.937Z,3.83
2022-12-05T19:53:44.961Z,3.86
2022-12-05T19:56:20.031Z,3.86
2022-12-05T19:58:47.391Z,3.80
2022-12-05T20:01:16.922Z,3.75
2022-12-05T20:03:50.033Z,3.74
2022-12-05T20:06:21.661Z,3.74
2022-12-05T20:08:51.147Z,3.67
2022-12-05T20:11:21.445Z,3.74
2022-12-05T20:13:49.126Z,3.73
2022-12-05T20:16:23.836Z,3.75
2022-12-05T20:18:53.381Z,3.71
2022-12-05T20:21:24.353Z,3.72
2022-12-05T20:23:53.082Z,3.78
2022-12-05T20:26:25.034Z,3.85
2022-12-05T20:28:52.265Z,3.76
2022-12-05T20:31:23.718Z,3.70
2022-12-05T20:33:52.144Z,3.74
2022-12-05T20:36:20.910Z,3.82
2022-12-05T20:38:48.013Z,3.77
2022-12-05T20:41:20.863Z,3.77
2022-12-05T20:43:52.247Z,3.78
2022-12-05T20:46:20.779Z,3.77
2022-12-05T20:48:49.338Z,3.75
2022-12-05T20:51:19.274Z,3.76
2022-12-05T20:53:46.404Z,3.84
2022-12-05T20:56:33.250Z,3.72
2022-12-05T20:59:02.975Z,3.75
2022-12-05T21:01:32.375Z,3.81
2022-12-05T21:04:00.141Z,3.78
2022-12-05T21:06:29.841Z,3.73
2022-12-05T21:08:58.296Z,3.81
2022-12-05T21:11:26.941Z,3.75
2022-12-05T21:13:56.734Z,3.79
2022-12-05T21:16:24.897Z,3.75
2022-12-05T21:18:53.266Z,3.74
2022-12-05T21:21:24.524Z,3.74
2022-12-05T21:24:02.044Z,3.72
2022-12-05T21:26:30.729Z,3.77
2022-12-05T21:28:59.325Z,3.81
2022-12-05T21:31:28.861Z,3.76
2022-12-05T22:00:09.417Z,3.70
2022-12-05T22:02:36.428Z,3.68
2022-12-05T22:05:03.728Z,3.64
2022-12-05T22:07:31.418Z,3.68
2022-12-05T22:10:00.299Z,3.69
2022-12-05T22:12:27.423Z,3.64
2022-12-05T22:14:54.453Z,3.62
2022-12-05T22:17:38.522Z,3.77
2022-12-05T22:20:18.482Z,3.73
2022-12-05T22:57:31.600Z,3.64
2022-12-05T22:59:59.209Z,3.59
2022-12-05T23:02:26.204Z,3.61
2022-12-05T23:04:53.076Z,3.59
2022-12-05T23:07:20.176Z,3.59
2022-12-05T23:09:47.322Z,3.55
2022-12-05T23:12:15.476Z,3.55
2022-12-05T23:14:42.178Z,3.47
2022-12-05T23:17:08.924Z,3.57
2022-12-05T23:19:35.771Z,3.48
2022-12-05T23:22:02.641Z,3.46
2022-12-05T23:24:29.320Z,3.46
2022-12-05T23:26:56.022Z,3.49
2022-12-05T23:29:22.628Z,3.51
2022-12-05T23:31:49.255Z,3.55
2022-12-05T23:34:15.926Z,3.54
2022-12-05T23:36:42.541Z,3.56
2022-12-05T23:39:09.245Z,3.53
2022-12-05T23:41:36.169Z,3.54
2022-12-05T23:44:02.830Z,3.47
2022-12-05T23:46:30.031Z,3.58
2022-12-05T23:48:58.069Z,3.52
2022-12-05T23:51:27.166Z,3.34
2022-12-05T23:53:55.874Z,3.29
2022-12-05T23:56:24.835Z,3.26
2022-12-05T23:58:51.781Z,3.23
